createdAt,value
2018-06-19T00:01:25.778Z,1.07
2018-06-19T00:03:54.518Z,1.00
2018-06-19T00:06:23.919Z,0.80
2018-06-19T00:08:52.502Z,0.80
2018-06-19T00:11:21.189Z,1.20
2018-06-19T00:13:49.714Z,1.00
2018-06-19T00:16:18.910Z,1.20
2018-06-19T00:18:50.943Z,1.00
2018-06-19T00:21:37.528Z,1.57
2018-06-19T00:24:06.145Z,1.43
2018-06-19T00:26:34.714Z,1.20
2018-06-19T00:29:03.386Z,1.23
2018-06-19T00:31:32.114Z,1.03
2018-06-19T00:34:00.699Z,0.80
2018-06-19T00:36:29.494Z,1.70
2018-06-19T00:38:58.129Z,1.20
2018-06-19T00:41:27.429Z,1.03
2018-06-19T00:43:56.011Z,1.47
2018-06-19T00:46:26.652Z,1.43
2018-06-19T00:48:55.531Z,1.50
2018-06-19T00:51:24.216Z,1.20
2018-06-19T00:53:53.158Z,1.40
2018-06-19T00:57:00.903Z,1.67
2018-06-19T00:59:29.602Z,1.10
2018-06-19T01:02:00.123Z,1.20
2018-06-19T01:04:28.859Z,1.10
2018-06-19T01:06:57.492Z,1.40
2018-06-19T01:09:26.114Z,1.30
2018-06-19T01:11:54.778Z,1.47
2018-06-19T01:14:23.445Z,0.93
2018-06-19T01:16:52.050Z,1.20
2018-06-19T01:19:20.715Z,1.43
2018-06-19T01:21:49.338Z,1.57
2018-06-19T01:24:17.838Z,1.13
2018-06-19T01:26:46.402Z,1.70
2018-06-19T01:29:15.051Z,1.10
2018-06-19T01:31:43.733Z,1.60
2018-06-19T01:34:12.424Z,1.50
2018-06-19T01:36:41.103Z,1.60
2018-06-19T01:39:10.870Z,1.40
2018-06-19T01:41:39.498Z,1.20
2018-06-19T01:44:08.127Z,1.40
2018-06-19T01:46:36.706Z,1.80
2018-06-19T01:49:05.430Z,1.60
2018-06-19T01:51:34.013Z,1.43
2018-06-19T01:54:02.616Z,1.23
2018-06-19T01:56:31.206Z,1.80
2018-06-19T01:58:59.714Z,1.53
2018-06-19T02:01:28.366Z,1.50
2018-06-19T02:03:56.905Z,1.50
2018-06-19T02:06:25.562Z,1.80
2018-06-19T02:08:54.262Z,1.53
2018-06-19T02:11:22.902Z,1.33
2018-06-19T02:13:51.528Z,1.50
2018-06-19T02:16:20.143Z,1.07
2018-06-19T02:18:48.688Z,1.13
2018-06-19T02:21:17.370Z,1.10
2018-06-19T02:23:45.917Z,1.17
2018-06-19T02:26:14.604Z,1.00
2018-06-19T02:28:43.206Z,0.97
2018-06-19T02:31:11.815Z,1.37
2018-06-19T02:33:40.458Z,1.43
2018-06-19T02:36:09.082Z,1.10
2018-06-19T02:38:37.726Z,1.20
2018-06-19T02:41:06.359Z,1.37
2018-06-19T02:43:35.092Z,1.03
2018-06-19T02:46:03.822Z,1.30
2018-06-19T02:48:32.463Z,1.10
2018-06-19T02:51:01.051Z,1.40
2018-06-19T02:53:29.717Z,1.37
2018-06-19T02:55:58.430Z,1.03
2018-06-19T02:58:27.014Z,1.07
2018-06-19T03:00:56.514Z,0.90
2018-06-19T03:03:25.066Z,1.63
2018-06-19T03:05:53.771Z,1.20
2018-06-19T03:08:22.294Z,1.30
2018-06-19T03:10:50.833Z,1.20
2018-06-19T03:13:19.523Z,1.27
2018-06-19T03:15:48.058Z,1.50
2018-06-19T03:18:16.685Z,1.20
2018-06-19T03:20:45.336Z,1.30
2018-06-19T03:23:13.913Z,1.10
2018-06-19T03:25:42.536Z,1.50
2018-06-19T03:28:11.142Z,1.83
2018-06-19T03:30:39.746Z,1.07
2018-06-19T03:33:08.496Z,1.23
2018-06-19T03:35:37.234Z,1.40
2018-06-19T03:38:05.899Z,1.27
2018-06-19T03:40:34.520Z,1.30
2018-06-19T03:43:03.147Z,1.53
2018-06-19T03:45:31.710Z,1.37
2018-06-19T03:48:00.335Z,1.60
2018-06-19T03:50:28.863Z,1.50
2018-06-19T03:52:57.462Z,1.40
2018-06-19T03:55:25.990Z,1.00
2018-06-19T03:57:54.625Z,1.70
2018-06-19T04:00:23.312Z,1.40
2018-06-19T04:02:52.345Z,1.20
2018-06-19T04:05:20.952Z,1.87
2018-06-19T04:07:49.474Z,1.50
2018-06-19T04:10:18.088Z,1.67
2018-06-19T04:12:46.739Z,1.60
2018-06-19T04:15:15.376Z,1.53
2018-06-19T04:17:43.946Z,1.47
2018-06-19T04:20:12.945Z,1.60
2018-06-19T04:22:41.580Z,1.80
2018-06-19T04:25:10.163Z,1.37
2018-06-19T04:27:38.849Z,2.03
2018-06-19T04:30:07.534Z,1.80
2018-06-19T04:32:36.163Z,1.60
2018-06-19T04:35:04.822Z,1.60
2018-06-19T04:37:33.384Z,1.87
2018-06-19T04:40:01.928Z,1.67
2018-06-19T04:42:30.524Z,1.63
2018-06-19T04:44:59.054Z,1.77
2018-06-19T04:47:27.914Z,2.00
2018-06-19T04:49:56.418Z,1.90
2018-06-19T04:52:25.010Z,1.77
2018-06-19T04:54:53.672Z,1.60
2018-06-19T04:57:22.790Z,1.90
2018-06-19T04:59:51.458Z,1.30
2018-06-19T05:02:19.958Z,1.77
2018-06-19T05:04:49.332Z,2.00
2018-06-19T05:07:17.826Z,1.57
2018-06-19T05:09:46.505Z,1.47
2018-06-19T05:12:15.695Z,1.93
2018-06-19T05:14:44.223Z,1.80
2018-06-19T05:17:13.427Z,1.77
2018-06-19T05:19:42.059Z,1.90
2018-06-19T05:22:10.641Z,1.60
2018-06-19T05:24:39.258Z,1.67
2018-06-19T05:27:07.826Z,1.80
2018-06-19T05:29:36.328Z,1.80
2018-06-19T05:32:04.886Z,1.77
2018-06-19T05:34:33.543Z,1.93
2018-06-19T05:37:02.082Z,1.93
2018-06-19T05:39:30.823Z,2.00
2018-06-19T05:41:59.326Z,2.07
2018-06-19T05:44:27.934Z,1.67
2018-06-19T05:46:56.572Z,2.10
2018-06-19T05:49:25.257Z,1.77
2018-06-19T05:51:53.798Z,1.90
2018-06-19T05:54:22.833Z,1.87
2018-06-19T05:56:51.667Z,1.93
2018-06-19T05:59:20.242Z,2.10
2018-06-19T06:01:48.888Z,2.47
2018-06-19T06:04:17.574Z,2.10
2018-06-19T06:06:46.194Z,1.87
2018-06-19T06:09:14.842Z,2.20
2018-06-19T06:11:43.324Z,2.10
2018-06-19T06:14:11.869Z,1.70
2018-06-19T06:16:40.468Z,1.73
2018-06-19T06:19:09.006Z,2.07
2018-06-19T06:21:37.630Z,2.53
2018-06-19T06:24:06.127Z,2.40
2018-06-19T06:26:34.819Z,1.93
2018-06-19T06:29:03.710Z,2.00
2018-06-19T06:31:33.215Z,2.20
2018-06-19T06:34:02.882Z,2.00
2018-06-19T06:36:31.518Z,2.23
2018-06-19T06:39:00.147Z,2.00
2018-06-19T06:41:28.696Z,2.10
2018-06-19T06:43:57.357Z,2.10
2018-06-19T06:46:26.584Z,2.27
2018-06-19T06:48:55.855Z,2.10
2018-06-19T06:51:24.456Z,1.90
2018-06-19T06:53:53.578Z,2.63
2018-06-19T06:56:22.676Z,2.27
2018-06-19T06:58:51.209Z,2.43
2018-06-19T07:01:20.355Z,2.23
2018-06-19T07:03:48.876Z,2.10
2018-06-19T07:06:17.681Z,2.30
2018-06-19T07:08:46.275Z,2.17
2018-06-19T07:11:14.870Z,2.33
2018-06-19T07:13:43.482Z,2.00
2018-06-19T07:16:12.110Z,2.63
2018-06-19T07:18:40.799Z,1.80
2018-06-19T07:21:09.334Z,2.07
2018-06-19T07:23:37.962Z,2.33
2018-06-19T07:26:06.600Z,1.97
2018-06-19T07:28:35.228Z,2.30
2018-06-19T07:31:03.930Z,2.23
2018-06-19T07:33:32.546Z,2.10
2018-06-19T07:36:01.074Z,2.10
2018-06-19T07:38:29.663Z,2.00
2018-06-19T07:40:58.165Z,1.87
2018-06-19T07:43:26.833Z,1.80
2018-06-19T07:45:55.426Z,2.43
2018-06-19T07:48:24.054Z,2.60
2018-06-19T07:50:52.577Z,1.90
2018-06-19T07:53:21.167Z,2.10
2018-06-19T07:55:50.606Z,2.53
2018-06-19T07:58:19.176Z,1.80
2018-06-19T08:00:47.829Z,1.90
2018-06-19T08:03:16.434Z,1.77
2018-06-19T08:05:45.055Z,2.03
2018-06-19T08:08:13.603Z,2.10
2018-06-19T08:10:42.470Z,1.97
2018-06-19T08:13:11.074Z,1.87
2018-06-19T08:15:40.240Z,1.70
2018-06-19T08:18:08.905Z,2.07
2018-06-19T08:20:37.520Z,2.37
2018-06-19T08:23:06.145Z,1.73
2018-06-19T08:25:34.788Z,1.70
2018-06-19T08:28:03.472Z,2.27
2018-06-19T08:30:31.959Z,1.47
2018-06-19T08:33:00.533Z,1.80
2018-06-19T08:35:29.114Z,1.90
2018-06-19T08:37:57.712Z,2.00
2018-06-19T08:40:26.354Z,2.43
2018-06-19T08:42:54.874Z,1.90
2018-06-19T08:45:23.627Z,1.83
2018-06-19T08:47:52.235Z,1.33
2018-06-19T08:50:20.962Z,1.90
2018-06-19T08:52:49.608Z,1.50
2018-06-19T08:55:18.307Z,1.23
2018-06-19T08:57:46.891Z,2.00
2018-06-19T09:00:15.979Z,2.10
2018-06-19T09:02:44.594Z,1.93
2018-06-19T09:05:13.450Z,1.83
2018-06-19T09:07:42.078Z,2.13
2018-06-19T09:10:10.587Z,2.13
2018-06-19T09:12:39.102Z,2.03
2018-06-19T09:15:07.756Z,2.07
2018-06-19T09:17:36.868Z,2.83
2018-06-19T09:20:05.759Z,2.53
2018-06-19T09:22:34.242Z,2.03
2018-06-19T09:25:02.924Z,1.97
2018-06-19T09:27:31.949Z,2.40
2018-06-19T09:30:00.522Z,2.20
2018-06-19T09:32:29.106Z,1.50
2018-06-19T09:34:57.683Z,1.47
2018-06-19T09:37:26.296Z,1.23
2018-06-19T09:39:54.835Z,1.50
2018-06-19T09:42:23.438Z,1.67
2018-06-19T09:44:52.018Z,1.50
2018-06-19T09:47:20.535Z,1.43
2018-06-19T09:49:49.112Z,1.33
2018-06-19T09:52:17.752Z,1.33
2018-06-19T09:54:46.483Z,1.03
2018-06-19T09:57:15.030Z,1.13
2018-06-19T09:59:44.210Z,1.20
2018-06-19T10:02:13.390Z,1.00
2018-06-19T10:04:41.988Z,1.23
2018-06-19T10:07:10.678Z,1.23
2018-06-19T10:09:39.272Z,1.37
2018-06-19T10:12:07.946Z,1.43
2018-06-19T10:14:36.617Z,1.20
2018-06-19T10:17:05.318Z,1.30
2018-06-19T10:19:33.972Z,1.17
2018-06-19T10:22:03.023Z,0.93
2018-06-19T10:24:32.395Z,0.90
2018-06-19T10:27:00.979Z,1.07
2018-06-19T10:29:29.675Z,0.67
2018-06-19T10:31:58.298Z,0.90
2018-06-19T10:34:27.647Z,0.80
2018-06-19T10:36:56.246Z,0.80
2018-06-19T10:39:24.813Z,1.03
2018-06-19T10:41:53.368Z,0.80
2018-06-19T10:44:22.810Z,0.80
2018-06-19T10:46:51.437Z,1.00
2018-06-19T10:49:20.070Z,0.90
2018-06-19T10:51:48.650Z,0.90
2018-06-19T10:54:17.246Z,1.03
2018-06-19T10:56:45.862Z,0.83
2018-06-19T10:59:14.451Z,0.70
2018-06-19T11:01:43.083Z,0.90
2018-06-19T11:04:11.691Z,1.60
2018-06-19T11:06:40.352Z,1.10
2018-06-19T11:09:10.633Z,0.90
2018-06-19T11:11:39.890Z,1.83
2018-06-19T11:14:08.596Z,1.20
2018-06-19T11:16:37.243Z,1.13
2018-06-19T11:19:05.928Z,1.00
2018-06-19T11:21:35.228Z,1.20
2018-06-19T11:24:04.680Z,1.27
2018-06-19T11:26:33.150Z,1.20
2018-06-19T11:29:01.776Z,1.17
2018-06-19T11:31:30.383Z,1.17
2018-06-19T11:33:59.002Z,1.17
2018-06-19T11:36:27.551Z,1.10
2018-06-19T11:38:56.174Z,1.10
2018-06-19T11:41:24.705Z,1.23
2018-06-19T11:43:53.303Z,1.10
2018-06-19T11:46:21.947Z,0.87
2018-06-19T11:48:50.518Z,1.73
2018-06-19T11:51:19.257Z,1.03
2018-06-19T11:53:48.403Z,1.03
2018-06-19T11:56:17.026Z,1.27
2018-06-19T11:58:45.675Z,0.77
2018-06-19T12:01:14.942Z,1.30
2018-06-19T12:03:43.942Z,0.97
2018-06-19T12:06:12.531Z,1.47
2018-06-19T12:08:41.083Z,1.00
2018-06-19T12:11:09.814Z,1.10
2018-06-19T12:13:38.466Z,1.40
2018-06-19T12:16:07.123Z,1.23
2018-06-19T12:18:35.706Z,1.10
2018-06-19T12:21:04.350Z,1.07
2018-06-19T12:23:32.922Z,1.30
2018-06-19T12:26:01.449Z,0.93
2018-06-19T12:28:30.139Z,1.37
2018-06-19T12:30:59.582Z,1.37
2018-06-19T12:33:28.228Z,0.90
2018-06-19T12:35:57.037Z,1.40
2018-06-19T12:38:25.626Z,1.00
2018-06-19T12:40:54.222Z,0.90
2018-06-19T12:43:22.806Z,0.90
2018-06-19T12:45:52.023Z,1.30
2018-06-19T12:48:20.649Z,1.10
2018-06-19T12:52:02.486Z,1.13
2018-06-19T12:54:42.550Z,1.20
2018-06-19T12:57:11.194Z,1.20
2018-06-19T12:59:40.506Z,1.40
2018-06-19T13:02:09.987Z,0.87
2018-06-19T13:04:49.629Z,1.10
2018-06-19T13:07:18.255Z,1.00
2018-06-19T13:09:46.898Z,1.03
2018-06-19T13:12:26.764Z,1.00
2018-06-19T13:14:55.358Z,0.80
2018-06-19T13:17:35.077Z,1.30
2018-06-19T13:20:15.745Z,0.87
2018-06-19T13:22:44.462Z,0.93
2018-06-19T13:25:13.115Z,1.00
2018-06-19T13:27:41.770Z,1.13
2018-06-19T13:30:21.538Z,1.10
2018-06-19T13:32:53.704Z,1.40
2018-06-19T13:35:22.441Z,0.90
2018-06-19T13:37:54.251Z,1.47
2018-06-19T13:41:35.784Z,0.90
2018-06-19T13:44:15.559Z,0.77
2018-06-19T13:46:44.094Z,1.27
2018-06-19T13:49:12.802Z,0.80
2018-06-19T13:51:41.357Z,0.90
2018-06-19T13:54:09.906Z,1.17
2018-06-19T13:57:53.848Z,1.00
2018-06-19T14:00:22.943Z,0.80
2018-06-19T14:02:51.483Z,0.80
2018-06-19T14:05:21.053Z,0.90
2018-06-19T14:08:03.644Z,0.90
2018-06-19T14:10:48.266Z,1.43
2018-06-19T14:13:17.521Z,1.00
2018-06-19T14:15:47.407Z,1.10
2018-06-19T14:18:17.011Z,1.10
2018-06-19T14:20:46.419Z,1.23
2018-06-19T14:23:15.386Z,0.93
2018-06-19T14:25:43.942Z,1.07
2018-06-19T14:28:12.483Z,1.20
2018-06-19T14:30:41.889Z,1.17
2018-06-19T14:33:10.556Z,1.00
2018-06-19T14:35:39.483Z,0.97
2018-06-19T14:38:08.896Z,1.00
2018-06-19T14:40:37.478Z,1.40
2018-06-19T14:43:07.069Z,1.20
2018-06-19T14:45:36.203Z,1.17
2018-06-19T14:48:04.951Z,0.87
2018-06-19T14:50:34.212Z,2.23
2018-06-19T14:53:02.936Z,5.40
2018-06-19T14:55:31.502Z,1.10
2018-06-19T14:58:00.625Z,1.57
2018-06-19T15:00:29.401Z,1.00
2018-06-19T15:02:57.987Z,1.10
2018-06-19T15:05:26.669Z,1.20
2018-06-19T15:07:56.020Z,0.90
2018-06-19T15:10:24.781Z,1.00
2018-06-19T15:12:53.546Z,1.17
2018-06-19T15:15:22.130Z,0.77
2018-06-19T15:17:52.040Z,1.67
2018-06-19T15:20:20.830Z,1.23
2018-06-19T15:22:49.426Z,0.93
2018-06-19T15:25:17.959Z,1.40
2018-06-19T15:27:46.628Z,1.23
2018-06-19T15:30:15.742Z,1.03
2018-06-19T15:32:44.360Z,1.10
2018-06-19T15:35:13.107Z,0.90
2018-06-19T15:37:41.772Z,1.03
2018-06-19T15:40:10.862Z,0.83
2018-06-19T15:42:39.554Z,0.77
2018-06-19T15:45:08.192Z,0.87
2018-06-19T15:47:36.734Z,0.70
2018-06-19T15:50:05.875Z,0.90
2018-06-19T15:52:34.508Z,1.13
2018-06-19T15:55:03.173Z,1.07
2018-06-19T15:57:31.838Z,0.80
2018-06-19T16:00:00.834Z,1.13
2018-06-19T16:02:30.583Z,1.20
2018-06-19T16:04:59.725Z,0.93
2018-06-19T16:07:28.937Z,0.97
2018-06-19T16:09:57.606Z,1.27
2018-06-19T16:12:26.118Z,1.00
2018-06-19T16:14:55.393Z,0.77
2018-06-19T16:17:24.687Z,1.00
2018-06-19T16:19:53.830Z,1.33
2018-06-19T16:22:22.347Z,1.20
2018-06-19T16:24:50.854Z,1.30
2018-06-19T16:27:19.413Z,1.00
2018-06-19T16:29:48.066Z,1.30
2018-06-19T16:32:16.621Z,1.23
2018-06-19T16:34:46.099Z,1.00
2018-06-19T16:37:14.590Z,0.83
2018-06-19T16:39:43.248Z,1.03
2018-06-19T16:42:13.218Z,0.80
2018-06-19T16:44:41.862Z,1.13
2018-06-19T16:47:11.147Z,0.80
2018-06-19T16:49:39.752Z,0.90
2018-06-19T16:52:08.314Z,1.27
2018-06-19T16:54:36.913Z,0.80
2018-06-19T16:57:05.599Z,1.00
2018-06-19T16:59:34.110Z,1.10
2018-06-19T17:02:02.763Z,1.00
2018-06-19T17:04:31.447Z,0.73
2018-06-19T17:06:59.946Z,1.07
2018-06-19T17:09:28.567Z,1.10
2018-06-19T17:11:57.114Z,0.93
2018-06-19T17:14:25.797Z,1.20
2018-06-19T17:16:54.623Z,1.00
2018-06-19T17:19:23.949Z,1.20
2018-06-19T17:21:52.458Z,1.20
2018-06-19T17:24:21.489Z,1.00
2018-06-19T17:26:50.128Z,1.00
2018-06-19T17:29:18.812Z,0.93
2018-06-19T17:31:47.376Z,1.07
2018-06-19T17:34:16.798Z,0.80
2018-06-19T17:36:45.378Z,1.10
2018-06-19T17:39:13.978Z,1.20
2018-06-19T17:41:42.539Z,1.43
2018-06-19T17:44:11.725Z,1.10
2018-06-19T17:46:41.094Z,1.47
2018-06-19T17:49:09.782Z,0.90
2018-06-19T17:51:40.155Z,1.17
2018-06-19T17:54:08.839Z,0.90
2018-06-19T17:56:37.994Z,0.70
2018-06-19T17:59:06.670Z,1.13
2018-06-19T18:01:35.202Z,1.10
2018-06-19T18:04:03.785Z,1.30
2018-06-19T18:06:32.386Z,1.23
2018-06-19T18:09:01.090Z,0.87
2018-06-19T18:11:29.635Z,1.13
2018-06-19T18:13:58.182Z,1.10
2018-06-19T18:16:26.716Z,1.33
2018-06-19T18:18:55.896Z,0.70
2018-06-19T18:21:25.555Z,1.10
2018-06-19T18:23:55.175Z,0.97
2018-06-19T18:26:23.901Z,0.97
2018-06-19T18:28:52.635Z,1.33
2018-06-19T18:31:21.268Z,1.30
2018-06-19T18:33:49.953Z,1.00
2018-06-19T18:36:20.633Z,1.03
2018-06-19T18:38:49.708Z,1.07
2018-06-19T18:41:18.370Z,1.00
2018-06-19T18:43:47.055Z,1.13
2018-06-19T18:46:15.987Z,1.63
2018-06-19T18:48:44.814Z,0.90
2018-06-19T18:51:13.542Z,1.03
2018-06-19T18:53:43.019Z,0.97
2018-06-19T18:56:11.571Z,1.67
2018-06-19T18:58:40.800Z,1.00
2018-06-19T19:01:09.382Z,1.40
2018-06-19T19:03:37.943Z,1.23
2018-06-19T19:06:06.505Z,1.20
2018-06-19T19:08:35.136Z,1.10
2018-06-19T19:11:03.762Z,1.10
2018-06-19T19:13:32.889Z,2.70
2018-06-19T19:16:06.569Z,1.03
2018-06-19T19:18:40.521Z,1.00
2018-06-19T19:21:09.840Z,1.20
2018-06-19T19:23:38.422Z,0.90
2018-06-19T19:26:07.514Z,0.77
2018-06-19T19:28:41.403Z,0.70
2018-06-19T19:31:09.938Z,0.83
2018-06-19T19:33:38.494Z,1.20
2018-06-19T19:36:07.158Z,0.83
2018-06-19T19:38:40.885Z,0.83
2018-06-19T19:41:09.646Z,1.00
2018-06-19T19:43:38.232Z,1.00
2018-06-19T19:46:06.908Z,1.30
2018-06-19T19:48:40.671Z,1.10
2018-06-19T19:51:09.918Z,1.30
2018-06-19T19:53:38.602Z,0.93
2018-06-19T19:56:12.407Z,1.20
2018-06-19T19:58:46.266Z,0.80
2018-06-19T20:01:14.898Z,1.20
2018-06-19T20:03:44.223Z,1.40
2018-06-19T20:06:12.779Z,1.37
2018-06-19T20:08:41.424Z,1.27
2018-06-19T20:11:10.025Z,1.60
2018-06-19T20:13:38.631Z,1.23
2018-06-19T20:16:07.560Z,1.30
2018-06-19T20:18:36.209Z,0.97
2018-06-19T20:21:05.609Z,1.57
2018-06-19T20:23:34.212Z,1.10
2018-06-19T20:26:03.490Z,1.03
2018-06-19T20:28:33.043Z,0.97
2018-06-19T20:31:01.767Z,1.33
2018-06-19T20:33:30.471Z,1.17
2018-06-19T20:36:00.086Z,1.27
2018-06-19T20:38:28.681Z,1.20
2018-06-19T20:40:59.872Z,0.87
2018-06-19T20:43:28.439Z,0.93
2018-06-19T20:45:57.120Z,1.13
2018-06-19T20:48:25.755Z,1.27
2018-06-19T20:50:54.281Z,1.03
2018-06-19T20:53:22.919Z,1.70
2018-06-19T20:55:51.605Z,1.50
2018-06-19T20:58:20.190Z,1.17
2018-06-19T21:00:48.817Z,1.23
2018-06-19T21:03:18.023Z,1.20
2018-06-19T21:05:46.571Z,1.33
2018-06-19T21:08:16.007Z,1.27
2018-06-19T21:10:44.606Z,1.23
2018-06-19T21:13:14.158Z,1.30
2018-06-19T21:15:42.778Z,0.93
2018-06-19T21:18:11.311Z,1.43
2018-06-19T21:20:40.404Z,1.33
2018-06-19T21:23:09.062Z,1.57
2018-06-19T21:25:37.673Z,1.37
2018-06-19T21:28:06.300Z,1.10
2018-06-19T21:30:34.879Z,0.90
2018-06-19T21:33:03.575Z,1.33
2018-06-19T21:35:32.090Z,2.80
2018-06-19T21:38:00.627Z,1.00
2018-06-19T21:40:29.199Z,1.27
2018-06-19T21:42:57.752Z,1.33
2018-06-19T21:45:26.258Z,1.03
2018-06-19T21:47:54.918Z,1.30
2018-06-19T21:50:23.604Z,1.37
2018-06-19T21:52:52.210Z,1.67
2018-06-19T21:55:20.975Z,1.20
2018-06-19T21:57:49.556Z,1.40
2018-06-19T22:00:18.243Z,1.10
2018-06-19T22:02:46.926Z,1.33
2018-06-19T22:05:15.486Z,1.33
2018-06-19T22:07:43.991Z,1.00
2018-06-19T22:10:12.574Z,1.10
2018-06-19T22:12:41.175Z,1.30
2018-06-19T22:15:10.459Z,1.80
2018-06-19T22:17:39.137Z,1.93
2018-06-19T22:20:09.420Z,1.00
2018-06-19T22:22:38.135Z,0.97
2018-06-19T22:25:06.650Z,1.17
2018-06-19T22:27:35.254Z,1.13
2018-06-19T22:30:03.907Z,1.00
2018-06-19T22:32:32.538Z,1.37
2018-06-19T22:35:01.166Z,1.20
2018-06-19T22:37:29.853Z,1.47
2018-06-19T22:39:58.536Z,1.07
2018-06-19T22:42:27.122Z,1.27
2018-06-19T22:44:55.807Z,1.00
2018-06-19T22:47:24.349Z,0.93
2018-06-19T22:49:53.018Z,0.90
2018-06-19T22:52:22.884Z,1.40
2018-06-19T22:54:51.747Z,1.47
2018-06-19T22:57:20.669Z,1.10
2018-06-19T22:59:49.612Z,1.07
2018-06-19T23:02:18.244Z,0.70
2018-06-19T23:04:46.778Z,1.10
2018-06-19T23:07:15.394Z,1.40
2018-06-19T23:09:44.560Z,1.13
2018-06-19T23:12:13.126Z,1.20
2018-06-19T23:14:41.668Z,1.40
2018-06-19T23:17:10.338Z,0.93
2018-06-19T23:19:38.888Z,1.40
2018-06-19T23:22:07.580Z,1.10
2018-06-19T23:24:36.204Z,1.00
2018-06-19T23:27:04.830Z,1.27
2018-06-19T23:29:33.962Z,1.03
2018-06-19T23:32:02.567Z,1.37
2018-06-19T23:34:31.842Z,0.87
2018-06-19T23:37:00.451Z,1.10
2018-06-19T23:39:29.136Z,1.20
2018-06-19T23:41:57.730Z,1.13
2018-06-19T23:44:26.343Z,1.13
2018-06-19T23:46:55.088Z,1.07
2018-06-19T23:49:23.670Z,1.30
2018-06-19T23:51:52.225Z,1.40
2018-06-19T23:54:20.747Z,1.10
2018-06-19T23:56:49.354Z,1.23
2018-06-19T23:59:17.915Z,1.97
